Time;durP1;ratioP1;P1;durP2;ratioP2;P2;SDS_P1;SDS_P2;PMS_P1;PMS_P2;Temp;Humidity;BMP_temperature;BMP_pressure;BME280_temperature;BME280_humidity;BME280_pressure;Samples;Min_cycle;Max_cycle;Signal;HPM_P1;HPM_P2
2023/05/23 00:02:20;;;;;;;;;18.00;15.00;26.30;44.30;;;;;;111623;1240;54163;-65
2023/05/23 00:04:48;;;;;;;;;17.50;16.00;26.30;44.00;;;;;;111588;1236;49787;-65
2023/05/23 00:07:15;;;;;;;;;17.25;15.25;26.30;43.80;;;;;;111657;1240;49029;-64
2023/05/23 00:09:42;;;;;;;;;15.00;14.00;26.20;43.70;;;;;;111611;1239;47378;-65
2023/05/23 00:12:09;;;;;;;;;16.33;15.00;26.20;43.70;;;;;;111647;1240;57158;-64
2023/05/23 00:14:36;;;;;;;;;17.00;16.00;26.20;43.70;;;;;;111484;1237;54555;-64
2023/05/23 00:17:03;;;;;;;;;18.00;17.00;26.20;43.70;;;;;;111628;1241;49245;-64
2023/05/23 00:19:31;;;;;;;;;16.25;15.00;26.20;43.70;;;;;;111633;1242;49235;-64
2023/05/23 00:21:58;;;;;;;;;17.67;15.67;26.20;43.70;;;;;;111642;1237;46580;-64
2023/05/23 00:24:25;;;;;;;;;17.00;16.00;26.20;43.90;;;;;;111583;1241;56717;-64
2023/05/23 00:26:51;;;;;;;;;16.75;14.75;26.20;43.70;;;;;;111610;1235;53552;-64
2023/05/23 00:29:18;;;;;;;;;16.00;15.00;26.20;43.70;;;;;;111567;1241;49334;-64
2023/05/23 00:31:46;;;;;;;;;19.50;17.25;26.20;43.70;;;;;;111642;1241;49646;-64
2023/05/23 00:34:14;;;;;;;;;15.75;14.00;26.20;44.30;;;;;;111612;1235;46732;-64
2023/05/23 00:36:42;;;;;;;;;21.25;14.00;26.20;43.70;;;;;;111637;1238;56647;-64
2023/05/23 00:39:17;;;;;;;;;17.75;16.75;26.20;43.70;;;;;;111622;1237;54228;-64
2023/05/23 00:41:47;;;;;;;;;16.00;14.75;26.20;43.70;;;;;;111662;1240;48974;-64
2023/05/23 00:44:14;;;;;;;;;15.25;14.00;26.20;43.70;;;;;;111605;1241;49818;-64
2023/05/23 00:46:43;;;;;;;;;16.50;15.50;26.20;43.70;;;;;;111377;1238;47781;-65
2023/05/23 00:49:10;;;;;;;;;16.00;15.33;26.20;43.70;;;;;;111594;1235;56090;-66
2023/05/23 00:51:37;;;;;;;;;15.00;13.50;26.20;43.80;;;;;;111611;1240;54137;-66
2023/05/23 00:54:05;;;;;;;;;17.67;16.67;26.20;43.70;;;;;;111628;1235;49913;-65
2023/05/23 00:56:31;;;;;;;;;21.50;15.50;26.10;43.60;;;;;;111681;1235;49333;-65
2023/05/23 00:58:59;;;;;;;;;14.75;12.50;26.20;43.70;;;;;;111678;1235;47307;-65
2023/05/23 01:01:26;;;;;;;;;15.00;14.00;26.10;43.60;;;;;;111543;1237;57780;-64
2023/05/23 01:03:53;;;;;;;;;16.00;13.00;26.10;43.60;;;;;;111598;1239;54703;-63
2023/05/23 01:06:20;;;;;;;;;15.33;12.33;26.10;43.60;;;;;;111609;1235;49303;-64
2023/05/23 01:08:47;;;;;;;;;15.00;14.00;26.10;43.60;;;;;;111651;1240;49037;-64
2023/05/23 01:11:22;;;;;;;;;18.00;16.67;26.10;43.60;;;;;;111629;1241;46634;-64
2023/05/23 01:14:00;;;;;;;;;15.00;14.00;26.10;43.60;;;;;;111563;1235;56012;-64
2023/05/23 01:16:35;;;;;;;;;16.25;15.25;26.10;43.80;;;;;;111986;1239;54027;-64
2023/05/23 01:19:28;;;;;;;;;20.25;16.00;26.10;43.60;;;;;;111645;1237;49328;-64
2023/05/23 01:22:00;;;;;;;;;15.00;14.00;26.20;43.60;;;;;;111475;1237;49926;-64
2023/05/23 01:24:54;;;;;;;;;15.00;12.75;26.20;43.60;;;;;;111606;1238;46034;-65
2023/05/23 01:27:50;;;;;;;;;18.33;16.00;26.20;43.60;;;;;;111617;1235;57141;-65
2023/05/23 01:30:18;;;;;;;;;14.25;12.25;26.20;43.50;;;;;;111559;1237;54154;-65
2023/05/23 01:32:47;;;;;;;;;15.00;14.00;26.20;43.50;;;;;;111654;1239;49736;-65
2023/05/23 01:35:19;;;;;;;;;16.00;15.00;26.10;43.50;;;;;;111231;1239;49882;-65
2023/05/23 01:37:46;;;;;;;;;18.00;16.50;26.10;43.60;;;;;;111654;1235;47744;-64
2023/05/23 01:40:13;;;;;;;;;16.50;14.25;26.10;43.50;;;;;;111654;1235;56967;-68
2023/05/23 01:42:40;;;;;;;;;15.00;14.00;26.10;43.70;;;;;;111592;1237;54616;-65
2023/05/23 01:45:08;;;;;;;;;13.33;12.00;26.10;43.50;;;;;;111470;1238;49493;-64
2023/05/23 01:47:35;;;;;;;;;15.00;13.00;26.10;43.80;;;;;;111662;1235;50585;-64
2023/05/23 01:50:03;;;;;;;;;16.25;13.75;26.10;43.60;;;;;;111498;1238;45864;-64
2023/05/23 01:52:30;;;;;;;;;15.00;12.00;26.10;43.80;;;;;;111689;1240;57136;-64
2023/05/23 01:54:58;;;;;;;;;13.00;12.00;26.10;43.60;;;;;;111531;1238;54381;-64
2023/05/23 01:57:26;;;;;;;;;13.75;12.00;26.00;43.80;;;;;;111632;1238;49194;-64
2023/05/23 01:59:53;;;;;;;;;17.00;15.75;26.00;43.60;;;;;;111508;1243;49338;-65
2023/05/23 02:02:21;;;;;;;;;13.75;12.75;26.00;43.70;;;;;;111589;1235;47398;-63
2023/05/23 02:04:48;;;;;;;;;18.75;17.75;26.00;43.60;;;;;;111543;1241;56771;-65
2023/05/23 02:07:15;;;;;;;;;19.00;16.00;26.00;43.60;;;;;;111508;1235;54699;-65
2023/05/23 02:09:42;;;;;;;;;15.00;13.50;26.00;43.60;;;;;;111632;1235;49278;-65
2023/05/23 02:12:09;;;;;;;;;16.50;13.00;26.00;43.60;;;;;;111620;1239;49508;-65
2023/05/23 02:14:36;;;;;;;;;13.67;12.67;26.00;43.60;;;;;;111600;1235;46672;-65
2023/05/23 02:17:03;;;;;;;;;15.00;12.00;26.00;43.60;;;;;;111575;1240;56676;-65
2023/05/23 02:19:30;;;;;;;;;13.75;12.75;26.00;43.60;;;;;;111635;1240;54757;-66
2023/05/23 02:21:57;;;;;;;;;14.75;13.75;26.00;43.80;;;;;;111612;1235;50355;-65
2023/05/23 02:24:24;;;;;;;;;15.25;13.25;25.90;43.50;;;;;;111622;1240;49320;-64
2023/05/23 02:26:52;;;;;;;;;16.00;13.50;25.90;43.80;;;;;;111609;1240;47889;-65
2023/05/23 02:29:19;;;;;;;;;15.00;14.00;25.90;43.50;;;;;;111670;1239;55969;-64
2023/05/23 02:31:46;;;;;;;;;14.67;13.33;25.90;43.70;;;;;;111639;1235;53750;-65
2023/05/23 02:34:13;;;;;;;;;14.75;11.75;25.90;43.60;;;;;;111598;1240;49534;-64
2023/05/23 02:36:40;;;;;;;;;14.50;12.00;25.90;43.50;;;;;;111612;1245;49101;-64
2023/05/23 02:39:07;;;;;;;;;15.25;12.75;25.90;43.50;;;;;;111629;1240;45818;-64
2023/05/23 02:41:35;;;;;;;;;14.00;12.00;25.90;43.50;;;;;;111623;1236;56111;-64
2023/05/23 02:44:02;;;;;;;;;13.50;12.00;25.90;43.50;;;;;;111577;1240;54965;-63
2023/05/23 02:46:29;;;;;;;;;14.00;13.00;25.90;43.60;;;;;;111621;1239;49078;-64
2023/05/23 02:48:56;;;;;;;;;16.00;13.00;25.90;43.60;;;;;;111556;1236;48962;-63
2023/05/23 02:51:23;;;;;;;;;13.33;12.00;25.90;43.60;;;;;;111684;1237;46711;-65
2023/05/23 02:53:50;;;;;;;;;13.33;12.00;25.90;43.10;;;;;;111627;1239;57085;-64
2023/05/23 02:56:17;;;;;;;;;13.00;12.00;25.90;43.60;;;;;;111639;1240;54345;-64
2023/05/23 02:58:44;;;;;;;;;14.50;13.50;25.90;43.60;;;;;;111636;1241;50256;-64
2023/05/23 03:01:11;;;;;;;;;16.50;14.00;25.90;43.60;;;;;;111565;1240;48779;-64
2023/05/23 03:03:38;;;;;;;;;12.67;12.00;25.90;43.60;;;;;;111519;1237;46832;-66
2023/05/23 03:06:06;;;;;;;;;14.67;13.67;25.90;43.60;;;;;;111578;1237;56237;-66
2023/05/23 03:08:33;;;;;;;;;14.00;12.00;25.90;43.60;;;;;;111647;1240;53541;-65
2023/05/23 03:11:00;;;;;;;;;12.75;11.75;25.90;43.60;;;;;;111610;1239;49129;-65
2023/05/23 03:13:27;;;;;;;;;13.67;12.67;25.90;43.60;;;;;;111593;1235;48866;-66
2023/05/23 03:15:54;;;;;;;;;13.00;10.67;25.80;43.50;;;;;;111682;1239;46615;-66
2023/05/23 03:18:22;;;;;;;;;15.00;14.00;25.80;43.70;;;;;;111635;1240;56818;-64
2023/05/23 03:20:49;;;;;;;;;12.75;11.75;25.80;43.50;;;;;;111633;1240;53989;-66
2023/05/23 03:23:16;;;;;;;;;15.00;14.00;25.80;43.50;;;;;;111603;1238;49996;-65
2023/05/23 03:25:43;;;;;;;;;12.25;11.50;25.80;43.50;;;;;;111603;1240;49784;-65
2023/05/23 03:28:11;;;;;;;;;14.00;13.00;25.80;43.50;;;;;;111635;1241;46160;-66
2023/05/23 03:30:38;;;;;;;;;13.00;12.00;25.80;43.50;;;;;;111612;1240;56403;-66
2023/05/23 03:33:05;;;;;;;;;13.00;12.00;25.80;43.50;;;;;;111607;1235;53632;-66
2023/05/23 03:35:32;;;;;;;;;15.00;12.75;25.80;43.70;;;;;;111621;1237;50017;-66
2023/05/23 03:37:59;;;;;;;;;14.67;12.67;25.80;43.60;;;;;;111634;1240;49448;-66
2023/05/23 03:40:26;;;;;;;;;13.33;11.00;25.80;43.70;;;;;;111623;1236;46049;-66
2023/05/23 03:43:06;;;;;;;;;13.00;11.67;25.80;43.50;;;;;;111648;1237;56802;-65
2023/05/23 03:45:33;;;;;;;;;14.00;13.00;25.80;43.50;;;;;;111593;1239;53928;-65
2023/05/23 03:48:00;;;;;;;;;14.00;12.75;25.80;44.10;;;;;;111594;1241;49993;-64
2023/05/23 03:50:27;;;;;;;;;13.00;12.00;25.80;43.50;;;;;;111638;1235;49379;-63
2023/05/23 03:52:54;;;;;;;;;17.00;11.00;25.80;43.50;;;;;;111603;1240;46233;-63
2023/05/23 03:55:22;;;;;;;;;12.25;11.00;25.80;43.50;;;;;;111684;1238;57482;-65
2023/05/23 03:57:50;;;;;;;;;16.50;12.00;25.80;43.50;;;;;;111704;1235;54171;-65
2023/05/23 04:00:18;;;;;;;;;13.25;12.50;25.80;43.50;;;;;;111683;1235;49456;-66
2023/05/23 04:02:45;;;;;;;;;14.00;13.00;25.80;43.10;;;;;;111580;1237;49120;-64
2023/05/23 04:05:12;;;;;;;;;13.00;12.00;25.80;43.60;;;;;;111653;1235;46003;-64
2023/05/23 04:07:40;;;;;;;;;14.67;13.67;25.80;43.70;;;;;;111639;1235;56390;-65
2023/05/23 05:15:39;;;;;;;;;26.00;20.00;18.30;63.00;;;;;;109500;1270;32565;-66
2023/05/23 05:18:07;;;;;;;;;20.75;16.00;21.10;54.80;;;;;;111352;1252;49219;-69
2023/05/23 05:20:34;;;;;;;;;21.00;19.00;22.00;53.90;;;;;;111398;1257;52500;-72
2023/05/23 05:23:02;;;;;;;;;21.25;19.50;22.70;52.80;;;;;;111370;1252;44197;-68
2023/05/23 05:25:35;;;;;;;;;19.00;18.00;23.40;52.10;;;;;;111342;1254;50039;-68
2023/05/23 05:28:05;;;;;;;;;26.00;21.67;23.90;51.50;;;;;;110440;1253;1205471;-64
2023/05/23 05:30:34;;;;;;;;;18.75;18.00;24.40;51.10;;;;;;111557;1251;51055;-69
2023/05/23 05:33:03;;;;;;;;;16.75;15.25;24.80;50.60;;;;;;112597;1241;45295;-71
2023/05/23 05:35:31;;;;;;;;;24.00;20.75;25.20;50.50;;;;;;112560;1243;50216;-70
2023/05/23 05:38:00;;;;;;;;;20.75;17.50;25.50;49.40;;;;;;112585;1243;50260;-69
2023/05/23 05:40:27;;;;;;;;;20.75;18.00;25.80;49.00;;;;;;112510;1244;51512;-69
2023/05/23 05:42:55;;;;;;;;;18.67;17.00;26.10;48.60;;;;;;112534;1241;43946;-70
2023/05/23 05:45:22;;;;;;;;;19.25;18.00;26.40;48.20;;;;;;112556;1243;48968;-78
2023/05/23 05:47:50;;;;;;;;;17.00;15.50;26.50;48.00;;;;;;112581;1240;49521;-62
2023/05/23 05:50:19;;;;;;;;;24.00;17.00;26.80;47.80;;;;;;112508;1244;51923;-68
2023/05/23 05:52:47;;;;;;;;;24.25;22.25;26.90;47.10;;;;;;112559;1244;43186;-66
2023/05/23 05:55:15;;;;;;;;;19.00;18.00;27.10;45.20;;;;;;112526;1243;49635;-60
2023/05/23 05:57:42;;;;;;;;;22.33;19.00;27.10;45.00;;;;;;112555;1243;49629;-65
2023/05/23 06:00:14;;;;;;;;;19.25;17.75;27.10;45.10;;;;;;112596;1241;52331;-67
2023/05/23 06:02:41;;;;;;;;;25.25;19.25;27.10;45.00;;;;;;112594;1241;44717;-63
2023/05/23 06:05:15;;;;;;;;;21.00;20.00;27.00;45.30;;;;;;112535;1243;48719;-66
2023/05/23 06:07:43;;;;;;;;;20.75;18.25;27.00;45.30;;;;;;112523;1240;49166;-66
2023/05/23 06:10:13;;;;;;;;;23.50;21.50;26.90;45.40;;;;;;112566;1244;51455;-63
2023/05/23 06:12:41;;;;;;;;;20.50;19.50;26.90;45.50;;;;;;112581;1243;44218;-65
2023/05/23 06:15:10;;;;;;;;;20.75;19.25;26.80;45.40;;;;;;112561;1241;49915;-65
2023/05/23 06:17:37;;;;;;;;;23.00;20.00;26.70;45.30;;;;;;112553;1244;50049;-75
2023/05/23 06:20:06;;;;;;;;;22.00;20.00;26.70;45.60;;;;;;112586;1243;51849;-72
2023/05/23 06:22:34;;;;;;;;;23.25;19.75;26.60;45.60;;;;;;112587;1243;44269;-73
2023/05/23 06:25:02;;;;;;;;;27.50;22.00;26.60;45.60;;;;;;112575;1243;50188;-72
2023/05/23 06:27:29;;;;;;;;;20.67;19.33;26.50;45.70;;;;;;112608;1242;50223;-77
2023/05/23 06:29:57;;;;;;;;;24.00;21.50;26.50;45.90;;;;;;112539;1243;51104;-70
2023/05/23 06:32:24;;;;;;;;;25.00;24.00;26.40;45.80;;;;;;112580;1243;43644;-73
2023/05/23 06:34:52;;;;;;;;;25.75;23.75;26.40;45.80;;;;;;112563;1243;48756;-51
2023/05/23 07:43:31;;;;;;;;;20.75;18.75;24.20;50.30;;;;;;108346;1275;34769;-63
2023/05/23 07:45:58;;;;;;;;;19.00;18.00;26.20;44.50;;;;;;110170;1253;48442;-64
2023/05/23 07:48:26;;;;;;;;;17.50;14.50;26.30;44.40;;;;;;109955;1257;53303;-70
2023/05/23 07:50:56;;;;;;;;;18.75;15.00;26.40;44.70;;;;;;109869;1254;44867;-72
2023/05/23 07:53:22;;;;;;;;;20.00;19.00;26.40;44.50;;;;;;109987;1253;50066;-69
2023/05/23 07:55:49;;;;;;;;;16.33;14.33;26.40;44.10;;;;;;109988;1257;49346;-68
2023/05/23 07:58:16;;;;;;;;;16.25;15.25;26.50;43.90;;;;;;109736;1256;627816;-69
2023/05/23 08:00:44;;;;;;;;;18.00;17.00;26.50;43.90;;;;;;110639;1249;44231;-69
2023/05/23 08:03:11;;;;;;;;;21.00;17.00;26.50;44.00;;;;;;110903;1244;49706;-69
2023/05/23 08:05:38;;;;;;;;;18.25;15.75;26.50;43.40;;;;;;110530;1243;49686;-71
2023/05/23 08:08:05;;;;;;;;;17.00;16.00;26.50;43.70;;;;;;110806;1247;54247;-69
2023/05/23 08:10:32;;;;;;;;;20.50;17.25;26.50;43.20;;;;;;110746;1243;44291;-68
2023/05/23 08:12:59;;;;;;;;;14.00;13.25;26.50;43.50;;;;;;110740;1243;49659;-71
2023/05/23 08:15:27;;;;;;;;;17.50;15.00;26.50;42.90;;;;;;110841;1248;49841;-62
2023/05/23 08:17:55;;;;;;;;;18.00;14.33;26.50;42.90;;;;;;110922;1248;54077;-64
2023/05/23 08:20:29;;;;;;;;;17.00;16.00;26.60;43.40;;;;;;110649;1245;44642;-64
2023/05/23 08:23:00;;;;;;;;;17.00;16.00;26.60;43.40;;;;;;110687;1248;49699;-63
2023/05/23 08:25:30;;;;;;;;;16.25;14.00;26.60;42.80;;;;;;110707;1248;49785;-64
2023/05/23 08:27:58;;;;;;;;;19.25;16.75;26.70;43.10;;;;;;110784;1248;53403;-67
2023/05/23 08:30:26;;;;;;;;;18.25;15.50;26.70;43.00;;;;;;110746;1243;45323;-64
2023/05/23 08:32:54;;;;;;;;;20.00;15.75;26.70;42.80;;;;;;110739;1248;49074;-67
2023/05/23 08:35:22;;;;;;;;;18.50;17.25;26.70;43.00;;;;;;110759;1245;49219;-64
2023/05/23 08:37:49;;;;;;;;;13.00;12.67;26.80;43.30;;;;;;110762;1245;54043;-66
2023/05/23 08:40:20;;;;;;;;;16.00;15.00;26.80;43.30;;;;;;110634;1247;44860;-66
2023/05/23 08:42:48;;;;;;;;;15.25;13.00;26.80;43.50;;;;;;110814;1247;48940;-68
2023/05/23 08:45:16;;;;;;;;;16.33;15.33;26.80;43.30;;;;;;110782;1243;48960;-65
2023/05/23 08:47:44;;;;;;;;;14.33;13.33;26.80;43.40;;;;;;110659;1248;53468;-69
2023/05/23 08:50:15;;;;;;;;;44.75;30.25;26.90;43.50;;;;;;110904;1244;44739;-71
2023/05/23 08:52:44;;;;;;;;;28.00;25.50;26.90;43.60;;;;;;110902;1248;49792;-74
2023/05/23 08:55:11;;;;;;;;;27.50;22.50;26.90;43.30;;;;;;111217;1243;50147;-69
2023/05/23 08:57:42;;;;;;;;;22.50;19.00;27.00;43.10;;;;;;110690;1246;53433;-65
2023/05/23 09:00:16;;;;;;;;;17.00;16.00;27.00;42.90;;;;;;110917;1250;44647;-67
2023/05/23 09:02:44;;;;;;;;;24.50;21.00;27.00;42.80;;;;;;110665;1244;49533;-68
2023/05/23 09:05:12;;;;;;;;;18.50;17.50;27.00;42.70;;;;;;110710;1244;50710;-67
2023/05/23 09:07:40;;;;;;;;;19.75;17.25;27.00;43.00;;;;;;110724;1244;53058;-68
2023/05/23 09:10:09;;;;;;;;;19.67;18.33;27.00;43.10;;;;;;110598;1243;44125;-64
2023/05/23 09:12:36;;;;;;;;;20.50;18.25;26.90;43.00;;;;;;112566;1247;49310;-65
2023/05/23 09:15:08;;;;;;;;;15.25;14.00;27.00;42.10;;;;;;110616;1250;50361;-65
2023/05/23 09:17:36;;;;;;;;;18.00;16.75;27.10;41.60;;;;;;110799;1244;53300;-66
2023/05/23 09:20:12;;;;;;;;;22.50;20.50;27.10;41.70;;;;;;110868;1248;45335;-64
2023/05/23 09:22:40;;;;;;;;;18.00;16.00;27.10;42.00;;;;;;110898;1248;49962;-66
2023/05/23 09:25:08;;;;;;;;;19.25;17.00;27.10;42.30;;;;;;110834;1243;49891;-67
2023/05/23 09:27:35;;;;;;;;;19.75;16.75;27.00;42.50;;;;;;110837;1248;54312;-65
2023/05/23 09:30:09;;;;;;;;;17.75;16.25;27.00;42.70;;;;;;110784;1243;44945;-67
2023/05/23 09:32:36;;;;;;;;;21.50;18.75;27.00;42.30;;;;;;110995;1244;49852;-66
2023/05/23 09:35:05;;;;;;;;;21.25;16.75;26.90;42.50;;;;;;110902;1245;49898;-67
2023/05/23 09:37:34;;;;;;;;;19.00;17.00;26.90;42.80;;;;;;110824;1244;54675;-63
2023/05/23 09:40:05;;;;;;;;;18.00;16.00;26.90;42.60;;;;;;110768;1248;44184;-64
2023/05/23 09:42:33;;;;;;;;;15.67;14.67;26.90;41.80;;;;;;110843;1247;49660;-65
2023/05/23 09:45:00;;;;;;;;;15.50;14.50;26.90;41.20;;;;;;110869;1244;49708;-65
2023/05/23 09:47:27;;;;;;;;;17.50;15.50;26.90;41.70;;;;;;110866;1247;54123;-67
2023/05/23 09:49:54;;;;;;;;;18.25;16.25;26.90;41.60;;;;;;110828;1243;44835;-67
2023/05/23 09:52:21;;;;;;;;;16.75;15.75;26.90;41.50;;;;;;110882;1243;49020;-65
2023/05/23 09:54:48;;;;;;;;;17.00;14.00;26.80;41.00;;;;;;110938;1244;49036;-69
2023/05/23 09:57:18;;;;;;;;;19.25;18.00;26.80;40.90;;;;;;110841;1244;54229;-64
2023/05/23 09:59:52;;;;;;;;;18.67;17.67;26.80;41.10;;;;;;110802;1249;44721;-66
2023/05/23 10:02:53;;;;;;;;;16.33;15.33;26.90;41.00;;;;;;110804;1248;49809;-65
2023/05/23 10:05:44;;;;;;;;;18.00;15.67;26.90;40.90;;;;;;110936;1249;49584;-65
2023/05/23 10:08:38;;;;;;;;;16.50;15.50;26.90;40.90;;;;;;110787;1249;53767;-64
2023/05/23 10:11:15;;;;;;;;;17.67;17.00;26.90;40.40;;;;;;110652;1249;44725;-64
2023/05/23 10:13:44;;;;;;;;;15.00;14.00;26.90;39.70;;;;;;110830;1248;49555;-66
2023/05/23 10:16:18;;;;;;;;;14.50;13.25;26.90;39.40;;;;;;110903;1245;49846;-65
2023/05/23 10:18:52;;;;;;;;;16.50;15.50;26.90;39.30;;;;;;110853;1248;54267;-64
2023/05/23 10:21:23;;;;;;;;;17.75;15.50;26.90;39.00;;;;;;110893;1246;45803;-65
2023/05/23 10:23:51;;;;;;;;;17.33;16.00;26.90;38.50;;;;;;110807;1243;48814;-65
2023/05/23 10:26:18;;;;;;;;;17.00;14.00;26.90;37.70;;;;;;110770;1244;49114;-65
2023/05/23 10:28:46;;;;;;;;;15.00;14.00;26.90;37.70;;;;;;110795;1244;54275;-65
2023/05/23 10:31:13;;;;;;;;;15.00;14.00;26.90;38.10;;;;;;110827;1244;44032;-66
2023/05/23 10:33:45;;;;;;;;;16.75;14.75;26.80;38.20;;;;;;110854;1243;50398;-65
2023/05/23 10:36:18;;;;;;;;;17.00;16.00;26.80;38.30;;;;;;110851;1246;48905;-65
2023/05/23 10:38:54;;;;;;;;;18.00;15.50;26.80;38.80;;;;;;110792;1248;54177;-64
2023/05/23 10:41:32;;;;;;;;;14.33;12.00;26.80;39.40;;;;;;110885;1243;44121;-65
2023/05/23 10:44:18;;;;;;;;;16.00;15.00;26.80;39.30;;;;;;110726;1245;49839;-68
2023/05/23 10:47:00;;;;;;;;;18.00;14.25;26.80;39.50;;;;;;110816;1245;50204;-65
2023/05/23 10:49:43;;;;;;;;;20.75;17.50;26.80;38.60;;;;;;110847;1248;54243;-66
2023/05/23 10:52:16;;;;;;;;;17.25;15.00;26.90;38.40;;;;;;110959;1248;44880;-65
2023/05/23 10:54:45;;;;;;;;;16.25;14.00;26.90;37.70;;;;;;110893;1245;50150;-65
2023/05/23 10:57:16;;;;;;;;;14.50;11.75;26.90;37.20;;;;;;110723;1245;50897;-66
2023/05/23 10:59:44;;;;;;;;;16.00;15.00;26.90;36.40;;;;;;110794;1248;53980;-65
2023/05/23 11:02:14;;;;;;;;;18.25;17.25;26.90;36.20;;;;;;110796;1243;44961;-63
2023/05/23 11:04:41;;;;;;;;;15.00;14.00;26.90;36.80;;;;;;110809;1244;50702;-64
2023/05/23 11:08:06;;;;;;;;;15.75;13.00;26.80;37.10;;;;;;110766;1248;49890;-63
2023/05/23 11:10:54;;;;;;;;;19.00;16.00;26.80;37.20;;;;;;110207;1251;54333;-65
2023/05/23 11:13:22;;;;;;;;;16.00;14.00;26.90;37.80;;;;;;110179;1254;44675;-67
2023/05/23 11:15:49;;;;;;;;;17.67;16.67;26.90;38.00;;;;;;110533;1248;49635;-69
2023/05/23 11:18:22;;;;;;;;;15.00;13.75;26.90;38.10;;;;;;110847;1243;49805;-69
2023/05/23 11:20:51;;;;;;;;;13.75;12.50;26.90;37.80;;;;;;110815;1248;54262;-66
2023/05/23 11:23:20;;;;;;;;;14.00;13.25;26.90;37.90;;;;;;110810;1243;45305;-66
2023/05/23 11:25:52;;;;;;;;;14.67;13.67;26.90;38.30;;;;;;110734;1248;49867;-69
2023/05/23 11:28:20;;;;;;;;;16.25;15.25;27.00;38.50;;;;;;110813;1244;49693;-64
2023/05/23 11:30:48;;;;;;;;;14.50;13.50;27.00;38.50;;;;;;110892;1248;53645;-64
2023/05/23 11:33:17;;;;;;;;;16.00;13.00;27.00;38.60;;;;;;110805;1244;44411;-66
2023/05/23 11:35:46;;;;;;;;;14.75;13.50;27.00;38.40;;;;;;110740;1247;50120;-69
2023/05/23 11:38:15;;;;;;;;;12.75;12.00;27.00;37.80;;;;;;110908;1244;49238;-65
2023/05/23 11:40:44;;;;;;;;;18.00;14.00;27.00;38.80;;;;;;110744;1244;53701;-67
2023/05/23 11:43:15;;;;;;;;;15.25;14.00;27.10;38.10;;;;;;110649;1246;45067;-64
2023/05/23 11:45:42;;;;;;;;;13.67;12.67;27.10;37.80;;;;;;111077;1245;49584;-63
2023/05/23 11:48:11;;;;;;;;;18.00;15.25;27.10;38.10;;;;;;110695;1248;49190;-67
2023/05/23 11:50:50;;;;;;;;;16.75;15.75;27.20;38.20;;;;;;110821;1248;54107;-65
2023/05/23 11:53:19;;;;;;;;;17.75;14.00;27.20;38.40;;;;;;110886;1248;44573;-62
2023/05/23 11:55:55;;;;;;;;;13.50;12.75;27.20;38.70;;;;;;111303;1247;49512;-61
2023/05/23 11:58:25;;;;;;;;;17.00;15.00;27.30;38.60;;;;;;110989;1248;49478;-62
2023/05/23 12:00:58;;;;;;;;;21.00;17.00;27.30;38.60;;;;;;110736;1243;54771;-66
2023/05/23 12:03:25;;;;;;;;;15.75;14.00;27.40;38.70;;;;;;111175;1243;44755;-66
2023/05/23 12:05:53;;;;;;;;;15.00;14.00;27.40;38.50;;;;;;110819;1243;49201;-66
2023/05/23 12:08:21;;;;;;;;;14.00;12.75;27.40;38.50;;;;;;110985;1247;49829;-66
2023/05/23 12:10:51;;;;;;;;;16.50;14.00;27.50;38.60;;;;;;110897;1248;54129;-63
2023/05/23 12:13:19;;;;;;;;;16.00;14.75;27.50;38.50;;;;;;110865;1247;44806;-64
2023/05/23 12:15:46;;;;;;;;;16.25;15.00;27.50;38.30;;;;;;111121;1243;49713;-68
2023/05/23 12:18:13;;;;;;;;;14.75;13.00;27.50;38.50;;;;;;111057;1244;49759;-66
2023/05/23 12:20:40;;;;;;;;;16.50;15.00;27.50;38.10;;;;;;110914;1244;53654;-70
2023/05/23 12:23:07;;;;;;;;;16.00;13.00;27.50;38.20;;;;;;110999;1243;45058;-66
2023/05/23 12:25:41;;;;;;;;;18.00;15.50;27.40;37.80;;;;;;110873;1243;49193;-65
2023/05/23 12:28:12;;;;;;;;;17.00;16.00;27.50;38.20;;;;;;110864;1244;49858;-62
2023/05/23 12:30:41;;;;;;;;;18.00;13.33;27.50;37.60;;;;;;110920;1248;54536;-61
2023/05/23 12:33:09;;;;;;;;;16.33;14.67;27.50;37.30;;;;;;110903;1244;44986;-61
2023/05/23 12:35:36;;;;;;;;;14.50;13.50;27.50;37.20;;;;;;110729;1248;49330;-64
2023/05/23 12:38:06;;;;;;;;;14.67;13.67;27.50;37.00;;;;;;110810;1248;49426;-62
2023/05/23 12:40:33;;;;;;;;;14.50;13.50;27.50;36.30;;;;;;110884;1248;54045;-63
2023/05/23 12:43:00;;;;;;;;;14.00;13.00;27.50;36.20;;;;;;110835;1244;44974;-62
2023/05/23 12:45:31;;;;;;;;;17.00;15.00;27.50;35.80;;;;;;110737;1244;49442;-61
2023/05/23 12:47:59;;;;;;;;;17.00;15.00;27.60;35.80;;;;;;110832;1243;49517;-63
2023/05/23 12:50:26;;;;;;;;;15.00;14.00;27.50;36.20;;;;;;110797;1248;55116;-62
2023/05/23 12:52:53;;;;;;;;;14.67;13.67;27.60;36.40;;;;;;110939;1248;44991;-64
2023/05/23 12:55:20;;;;;;;;;15.33;14.33;27.60;36.60;;;;;;111162;1248;50417;-65
2023/05/23 12:57:47;;;;;;;;;14.50;13.50;27.60;36.80;;;;;;110899;1243;49952;-64
2023/05/23 13:00:14;;;;;;;;;17.75;15.75;27.60;36.80;;;;;;110832;1245;53820;-63
2023/05/23 13:02:41;;;;;;;;;13.75;12.75;27.70;37.10;;;;;;110914;1248;45380;-64
2023/05/23 13:05:08;;;;;;;;;15.50;13.75;27.70;37.20;;;;;;111325;1240;49743;-72
2023/05/23 13:07:36;;;;;;;;;18.25;15.75;27.70;37.10;;;;;;111277;1243;49260;-71
2023/05/23 13:10:04;;;;;;;;;17.67;16.67;27.70;37.20;;;;;;111415;1240;53307;-73
2023/05/23 13:12:33;;;;;;;;;15.25;13.50;27.70;37.10;;;;;;111238;1240;45242;-72
2023/05/23 13:14:59;;;;;;;;;16.33;15.67;27.60;36.70;;;;;;111309;1243;50673;-75
2023/05/23 13:17:26;;;;;;;;;18.50;15.00;27.60;36.60;;;;;;111375;1237;50084;-69
2023/05/23 13:19:53;;;;;;;;;17.25;15.25;27.60;37.10;;;;;;111352;1244;54512;-74
2023/05/23 13:22:20;;;;;;;;;16.75;13.75;27.50;36.80;;;;;;111225;1240;45009;-71
2023/05/23 13:24:47;;;;;;;;;15.33;13.00;27.50;35.90;;;;;;111286;1243;50461;-69
2023/05/23 13:27:14;;;;;;;;;19.50;15.75;27.50;36.80;;;;;;111358;1243;49257;-72
2023/05/23 13:29:41;;;;;;;;;19.67;18.67;27.50;37.30;;;;;;111227;1243;53941;-69
2023/05/23 13:32:08;;;;;;;;;16.00;15.00;27.60;37.30;;;;;;111418;1240;45422;-68
2023/05/23 13:34:36;;;;;;;;;17.00;16.00;27.60;37.00;;;;;;111301;1240;49134;-69
2023/05/23 13:37:04;;;;;;;;;26.25;23.75;27.60;37.40;;;;;;111359;1243;49322;-65
2023/05/23 13:39:31;;;;;;;;;34.25;26.00;27.60;37.60;;;;;;111692;1239;53203;-65
2023/05/23 13:41:58;;;;;;;;;32.25;24.25;27.50;37.40;;;;;;112090;1240;44937;-65
2023/05/23 13:44:25;;;;;;;;;24.50;21.50;27.60;37.00;;;;;;111264;1241;49000;-66
2023/05/23 13:46:52;;;;;;;;;25.33;19.00;27.60;36.20;;;;;;111229;1238;49611;-65
2023/05/23 13:49:19;;;;;;;;;20.33;18.00;27.60;36.30;;;;;;111401;1244;54454;-66
2023/05/23 13:51:46;;;;;;;;;18.00;15.00;27.60;35.90;;;;;;111332;1242;44382;-67
2023/05/23 13:54:13;;;;;;;;;25.00;21.00;27.50;35.90;;;;;;111268;1238;48932;-67
2023/05/23 13:56:40;;;;;;;;;17.00;15.00;27.50;36.30;;;;;;111289;1240;49947;-67
2023/05/23 13:59:07;;;;;;;;;17.25;16.25;27.40;36.40;;;;;;111270;1243;54857;-67
2023/05/23 14:01:34;;;;;;;;;20.67;16.00;27.40;36.60;;;;;;111308;1243;44876;-65
2023/05/23 14:04:00;;;;;;;;;15.75;14.75;27.40;36.10;;;;;;111185;1243;49358;-66
2023/05/23 14:06:27;;;;;;;;;16.00;15.00;27.40;35.70;;;;;;111265;1240;50682;-67
2023/05/23 14:08:55;;;;;;;;;14.75;13.75;27.30;35.10;;;;;;111313;1239;53959;-64
2023/05/23 14:11:22;;;;;;;;;20.00;13.50;27.30;34.90;;;;;;111265;1239;45379;-66
2023/05/23 14:13:48;;;;;;;;;14.00;13.25;27.30;34.70;;;;;;111312;1240;50002;-68
2023/05/23 14:16:15;;;;;;;;;16.00;14.75;27.20;34.60;;;;;;111324;1240;49948;-66
2023/05/23 14:18:42;;;;;;;;;19.00;16.00;27.20;34.70;;;;;;111303;1244;54152;-65
2023/05/23 14:21:09;;;;;;;;;15.00;14.00;27.20;34.80;;;;;;111327;1239;44447;-66
2023/05/23 14:23:36;;;;;;;;;14.00;13.00;27.20;34.60;;;;;;111388;1243;49644;-67
2023/05/23 14:26:03;;;;;;;;;14.50;13.25;27.20;34.60;;;;;;111521;1242;49808;-66
2023/05/23 14:28:30;;;;;;;;;17.25;15.00;27.10;34.50;;;;;;111322;1243;53488;-66
2023/05/23 14:30:58;;;;;;;;;16.00;14.00;27.10;34.40;;;;;;111304;1239;44613;-66
2023/05/23 14:33:25;;;;;;;;;18.00;15.75;27.10;34.50;;;;;;111409;1239;48875;-68
2023/05/23 14:35:52;;;;;;;;;16.50;15.75;27.10;34.70;;;;;;111190;1244;49223;-68
2023/05/23 14:38:19;;;;;;;;;15.75;14.50;27.00;35.00;;;;;;111168;1243;54393;-69
2023/05/23 14:40:47;;;;;;;;;16.25;15.50;27.00;35.10;;;;;;111196;1243;44614;-68